Date,TemperatureHighF,TemperatureAvgF,TemperatureLowF,DewpointHighF,DewpointAvgF,DewpointLowF,HumidityHigh,HumidityAvg,HumidityLow,PressureMaxIn,PressureMinIn,WindSpeedMaxMPH,WindSpeedAvgMPH,GustSpeedMaxMPH,PrecipitationSumIn
2013-6-1,81.0,70.9,61.0,72.3,43.7,-23.0,100,57,1,27.99,27.86,11,1,11,0.00
2013-6-2,76.0,65.1,62.0,49.0,-21.9,-23.0,55,1,2,27.91,27.78,7,0,7,2.73
2013-6-3,81.0,67.9,61.0,75.5,14.1,-23.0,95,31,4,27.84,27.70,8,0,8,0.04
2013-6-4,83.0,68.8,57.0,75.5,27.7,-40.0,95,45,30,27.94,27.83,7,0,8,0.00
2013-6-5,80.0,68.7,62.0,76.8,17.9,-23.0,98,38,8,27.94,27.80,8,0,8,0.26
2013-6-6,74.0,67.4,63.0,68.5,2.5,-23.0,82,19,1,27.85,27.64,5,0,5,0.07
2013-6-7,81.0,66.7,61.0,77.3,-4.4,-23.0,96,17,12,27.72,27.54,7,0,7,2.61
2013-6-8,84.0,66.7,59.0,76.5,-5.3,-23.0,91,15,67,27.96,27.70,5,0,5,0.22
2013-6-9,81.0,67.1,60.0,77.7,-16.9,-23.0,92,4,3,28.00,27.87,13,0,15,0.74
2013-6-10,77.0,68.6,62.0,74.3,3.4,-23.0,97,22,4,27.90,27.75,9,1,10,1.03
2013-6-11,86.0,72.6,62.0,76.0,35.3,-23.0,95,48,24,27.90,27.80,9,0,9,0.06
2013-6-12,93.0,77.3,60.0,84.7,37.7,-23.0,93,48,32,27.90,27.77,5,0,5,0.00
2013-6-13,88.0,72.9,65.0,78.0,26.3,-23.0,97,35,3,27.82,27.58,8,1,8,0.01
2013-6-14,78.0,67.8,55.0,67.0,55.6,-40.0,100,70,7,27.93,27.69,12,1,12,0.00
2013-6-15,88.0,66.6,50.0,72.3,23.7,-40.0,100,43,24,28.01,27.87,8,0,8,0.00
2013-6-16,86.0,71.9,57.0,76.0,39.5,-40.0,98,53,4,28.00,27.86,6,0,6,0.00
2013-6-17,82.0,74.3,67.0,80.0,51.3,-23.0,100,68,2,27.90,27.79,5,0,5,0.13
2013-6-19,66.0,64.7,64.0,-23.0,-23.0,-23.0,0,0,100,27.97,27.83,0,0,0,0.00
2013-6-20,81.0,68.3,59.0,77.0,18.3,-23.0,98,38,1,28.08,27.97,6,0,7,0.00
2013-6-21,84.0,69.5,58.0,76.3,22.5,-40.0,97,38,3,28.11,28.00,5,0,5,0.00
2013-6-22,88.0,74.1,60.0,73.0,46.5,-23.0,97,55,1,28.09,27.94,5,0,5,0.00
2013-6-23,86.0,72.9,60.0,81.0,32.9,-23.0,97,48,14,28.07,27.95,6,0,6,0.00
2013-6-24,87.0,76.6,65.0,81.3,42.5,-23.0,96,56,11,28.07,27.92,7,0,7,0.08
2013-6-25,87.0,72.4,64.0,80.8,14.3,-23.0,97,33,36,28.01,27.88,4,0,5,0.03
2013-6-26,89.0,77.0,68.0,83.5,26.8,-23.0,95,42,25,27.91,27.78,4,0,5,0.44
2013-6-27,87.0,72.6,64.0,83.3,-4.1,-23.0,92,14,2,27.80,27.63,4,0,5,0.46
2013-6-28,86.0,74.4,65.0,81.3,20.7,-23.0,91,35,6,27.70,27.49,7,0,7,0.04
2013-6-29,87.0,77.8,64.0,79.0,51.7,-23.0,92,61,3,27.58,27.49,5,0,5,0.01
2013-6-30,86.0,76.1,64.0,77.3,45.4,-23.0,91,55,1,27.69,27.57,6,1,6,0.00